createdAt,value
2018-01-12T00:00:51.918Z,9.46
2018-01-12T00:03:24.348Z,9.65
2018-01-12T00:05:55.802Z,9.59
2018-01-12T00:08:27.395Z,9.74
2018-01-12T00:10:59.221Z,9.93
2018-01-12T00:13:30.801Z,9.63
2018-01-12T00:16:02.376Z,10.14
2018-01-12T00:18:34.329Z,9.95
2018-01-12T00:21:05.974Z,10.10
2018-01-12T00:23:37.982Z,10.02
2018-01-12T00:26:09.499Z,9.81
2018-01-12T00:28:40.791Z,9.79
2018-01-12T00:31:12.982Z,9.78
2018-01-12T00:33:45.335Z,10.00
2018-01-12T00:37:20.581Z,10.00
2018-01-12T00:39:52.777Z,10.30
2018-01-12T00:42:25.587Z,10.46
2018-01-12T00:45:00.268Z,10.54
2018-01-12T00:47:32.519Z,10.73
2018-01-12T00:50:05.308Z,10.89
2018-01-12T00:52:37.191Z,10.55
2018-01-12T00:55:10.710Z,10.98
2018-01-12T00:57:43.364Z,11.17
2018-01-12T01:00:15.562Z,11.23
2018-01-12T01:02:48.201Z,11.08
2018-01-12T01:05:20.081Z,11.21
2018-01-12T01:07:51.554Z,10.84
2018-01-12T01:10:25.212Z,10.93
2018-01-12T01:12:56.778Z,10.87
2018-01-12T01:15:28.850Z,10.66
2018-01-12T01:18:00.195Z,10.05
2018-01-12T01:20:32.002Z,10.28
2018-01-12T01:23:03.358Z,10.11
2018-01-12T01:25:34.667Z,9.77
2018-01-12T01:28:06.684Z,10.33
2018-01-12T01:30:38.240Z,10.32
2018-01-12T01:33:09.881Z,9.33
2018-01-12T01:35:42.658Z,9.10
2018-01-12T01:38:15.283Z,8.90
2018-01-12T01:40:47.385Z,8.55
2018-01-12T01:43:19.578Z,8.62
2018-01-12T01:45:51.179Z,8.95
2018-01-12T01:48:31.837Z,9.12
2018-01-12T01:51:04.061Z,9.62
2018-01-12T01:53:36.448Z,9.38
2018-01-12T01:56:08.319Z,9.51
2018-01-12T01:58:40.039Z,9.37
2018-01-12T02:01:13.392Z,9.52
2018-01-12T02:03:45.127Z,9.37
2018-01-12T02:06:17.218Z,9.48
2018-01-12T02:08:49.676Z,9.45
2018-01-12T02:11:21.379Z,9.33
2018-01-12T02:13:52.883Z,9.09
2018-01-12T02:16:24.447Z,8.83
2018-01-12T02:18:56.214Z,9.10
2018-01-12T02:21:28.589Z,9.18
2018-01-12T02:24:00.486Z,9.64
2018-01-12T02:26:32.241Z,10.00
2018-01-12T02:29:04.003Z,10.07
2018-01-12T02:31:36.324Z,10.28
2018-01-12T02:34:08.075Z,10.31
2018-01-12T02:36:39.966Z,10.41
2018-01-12T02:39:11.272Z,10.28
2018-01-12T02:41:42.642Z,10.43
2018-01-12T02:44:15.377Z,10.26
2018-01-12T02:46:46.996Z,9.95
2018-01-12T02:49:19.263Z,9.51
2018-01-12T02:51:52.593Z,9.18
2018-01-12T02:54:24.447Z,9.04
2018-01-12T02:56:57.316Z,8.80
2018-01-12T02:59:30.659Z,8.87
2018-01-12T03:02:02.714Z,9.20
2018-01-12T03:04:34.040Z,9.66
2018-01-12T03:07:06.127Z,10.03
2018-01-12T03:09:37.893Z,10.07
2018-01-12T03:12:09.989Z,10.33
2018-01-12T03:14:41.364Z,10.10
2018-01-12T03:17:13.016Z,10.18
2018-01-12T03:19:44.862Z,10.14
2018-01-12T03:22:16.755Z,10.25
2018-01-12T03:24:48.459Z,9.94
2018-01-12T03:27:21.073Z,9.68
2018-01-12T03:29:52.772Z,8.92
2018-01-12T03:32:24.413Z,8.79
2018-01-12T03:34:56.231Z,9.05
2018-01-12T03:37:28.083Z,8.70
2018-01-12T03:40:00.257Z,8.86
2018-01-12T03:42:32.044Z,8.93
2018-01-12T03:45:04.244Z,9.11
2018-01-12T03:47:35.991Z,8.95
2018-01-12T03:50:07.355Z,9.18
2018-01-12T03:52:38.718Z,9.26
2018-01-12T03:55:12.141Z,9.21
2018-01-12T03:57:43.866Z,9.37
2018-01-12T04:00:16.237Z,9.23
2018-01-12T04:02:48.377Z,9.30
2018-01-12T04:05:19.924Z,9.04
2018-01-12T04:07:51.349Z,8.99
2018-01-12T04:10:29.108Z,8.55
2018-01-12T04:13:00.935Z,8.87
2018-01-12T04:15:32.332Z,8.59
2018-01-12T04:18:04.735Z,8.50
2018-01-12T04:20:39.900Z,8.47
2018-01-12T04:23:11.578Z,8.72
2018-01-12T04:25:43.728Z,8.80
2018-01-12T04:28:15.135Z,8.99
2018-01-12T04:30:46.894Z,8.67
2018-01-12T04:33:19.047Z,8.49
2018-01-12T04:35:50.412Z,8.25
2018-01-12T04:38:21.622Z,8.40
2018-01-12T04:40:53.273Z,8.94
2018-01-12T04:43:24.621Z,9.11
2018-01-12T04:45:56.096Z,8.93
2018-01-12T04:48:28.466Z,9.09
2018-01-12T04:50:59.897Z,9.54
2018-01-12T04:53:31.493Z,9.26
2018-01-12T04:56:03.688Z,9.27
2018-01-12T04:58:35.374Z,9.26
2018-01-12T05:01:06.887Z,8.93
2018-01-12T05:03:39.130Z,8.98
2018-01-12T05:06:11.487Z,8.92
2018-01-12T05:08:43.326Z,8.87
2018-01-12T05:11:14.616Z,9.01
2018-01-12T05:13:45.819Z,9.07
2018-01-12T05:16:18.043Z,9.13
2018-01-12T05:18:50.056Z,9.32
2018-01-12T05:21:21.850Z,9.09
2018-01-12T05:23:53.208Z,8.53
2018-01-12T05:26:24.552Z,8.30
2018-01-12T05:28:56.230Z,8.34
2018-01-12T05:31:27.896Z,8.72
2018-01-12T05:33:59.150Z,8.79
2018-01-12T05:36:31.379Z,8.93
2018-01-12T05:39:03.403Z,8.55
2018-01-12T05:41:34.668Z,8.32
2018-01-12T05:44:07.009Z,8.58
2018-01-12T05:46:39.781Z,8.62
2018-01-12T05:49:13.383Z,8.73
2018-01-12T05:51:49.444Z,8.48
2018-01-12T05:54:22.320Z,8.44
2018-01-12T05:56:54.887Z,8.44
2018-01-12T05:59:27.830Z,8.24
2018-01-12T06:08:32.058Z,8.65
2018-01-12T06:11:03.794Z,8.50
2018-01-12T06:13:35.227Z,8.64
2018-01-12T06:16:08.125Z,8.22
2018-01-12T06:18:40.027Z,7.91
2018-01-12T06:21:12.400Z,7.65
2018-01-12T06:23:44.939Z,7.90
2018-01-12T06:26:17.210Z,8.34
2018-01-12T06:28:50.009Z,8.79
2018-01-12T06:31:21.784Z,9.15
2018-01-12T06:33:54.697Z,9.08
2018-01-12T06:36:29.517Z,9.36
2018-01-12T06:39:01.139Z,9.12
2018-01-12T06:41:32.741Z,9.22
2018-01-12T06:44:04.655Z,9.21
2018-01-12T06:46:35.934Z,9.01
2018-01-12T06:49:09.351Z,9.09
2018-01-12T06:51:40.882Z,9.19
2018-01-12T06:54:23.044Z,9.50
2018-01-12T06:56:54.876Z,8.95
2018-01-12T06:59:30.270Z,8.90
2018-01-12T07:02:02.231Z,9.16
2018-01-12T07:04:33.681Z,9.57
2018-01-12T07:07:05.617Z,9.70
2018-01-12T07:09:37.705Z,9.25
2018-01-12T07:12:10.332Z,9.00
2018-01-12T07:14:50.399Z,9.20
2018-01-12T07:17:23.693Z,9.03
2018-01-12T07:19:56.399Z,9.07
2018-01-12T07:22:36.993Z,9.43
2018-01-12T07:25:08.917Z,9.18
2018-01-12T07:27:42.743Z,9.67
2018-01-12T07:30:15.791Z,9.67
2018-01-12T07:32:47.380Z,9.59
2018-01-12T07:35:20.432Z,9.42
2018-01-12T07:37:53.105Z,9.82
2018-01-12T07:40:31.827Z,9.67
2018-01-12T07:43:03.653Z,9.97
2018-01-12T07:45:35.638Z,9.73
2018-01-12T07:48:07.574Z,9.99
2018-01-12T07:50:38.861Z,9.98
2018-01-12T07:53:14.190Z,9.78
2018-01-12T07:55:47.727Z,9.55
2018-01-12T07:58:20.232Z,9.84
2018-01-12T08:00:57.276Z,9.83
2018-01-12T08:03:28.632Z,10.00
2018-01-12T08:06:00.903Z,9.62
2018-01-12T08:08:32.572Z,9.87
2018-01-12T08:11:05.632Z,9.53
2018-01-12T08:13:37.188Z,9.55
2018-01-12T08:16:08.580Z,9.52
2018-01-12T08:18:40.152Z,9.18
2018-01-12T08:21:12.444Z,9.37
2018-01-12T08:23:44.416Z,9.61
2018-01-12T08:26:17.057Z,9.46
2018-01-12T08:28:49.913Z,9.18
2018-01-12T08:31:22.003Z,9.18
2018-01-12T08:33:53.680Z,9.22
2018-01-12T08:36:25.161Z,9.55
2018-01-12T08:38:56.732Z,9.26
2018-01-12T08:41:28.050Z,9.36
2018-01-12T08:44:03.793Z,9.57
2018-01-12T08:46:35.420Z,9.56
2018-01-12T08:49:08.409Z,9.24
2018-01-12T08:51:40.455Z,9.07
2018-01-12T08:54:11.782Z,8.74
2018-01-12T08:56:44.271Z,9.16
2018-01-12T08:59:16.960Z,9.50
2018-01-12T09:01:49.887Z,9.35
2018-01-12T09:04:22.343Z,9.45
2018-01-12T09:06:57.255Z,9.08
2018-01-12T09:09:30.416Z,8.94
2018-01-12T09:12:01.882Z,8.73
2018-01-12T09:14:42.080Z,8.40
2018-01-12T09:17:14.120Z,8.39
2018-01-12T09:19:50.952Z,8.64
2018-01-12T09:22:30.622Z,8.44
2018-01-12T09:25:06.592Z,8.94
2018-01-12T09:27:39.256Z,9.32
2018-01-12T09:30:13.412Z,9.05
2018-01-12T09:32:46.286Z,9.29
2018-01-12T09:35:17.439Z,9.60
2018-01-12T09:37:49.059Z,9.67
2018-01-12T09:40:23.082Z,9.67
2018-01-12T09:42:54.209Z,9.60
2018-01-12T09:45:26.739Z,9.95
2018-01-12T09:48:07.020Z,9.92
2018-01-12T09:50:38.889Z,9.42
2018-01-12T09:53:12.002Z,8.77
2018-01-12T09:55:44.101Z,8.66
2018-01-12T09:58:15.843Z,8.86
2018-01-12T10:00:50.524Z,9.53
2018-01-12T10:03:23.448Z,8.83
2018-01-12T10:05:55.748Z,9.21
2018-01-12T10:08:28.501Z,9.32
2018-01-12T10:10:59.785Z,8.95
2018-01-12T10:13:32.098Z,8.86
2018-01-12T10:16:03.357Z,9.10
2018-01-12T10:18:38.542Z,9.43
2018-01-12T10:21:12.466Z,9.30
2018-01-12T10:23:43.953Z,9.42
2018-01-12T10:26:16.087Z,9.68
2018-01-12T10:28:57.901Z,9.59
2018-01-12T10:31:36.316Z,9.64
2018-01-12T10:34:10.649Z,9.84
2018-01-12T10:36:48.400Z,9.67
2018-01-12T10:39:27.632Z,9.58
2018-01-12T10:42:06.373Z,9.64
2018-01-12T10:44:37.761Z,9.66
2018-01-12T10:47:19.295Z,9.77
2018-01-12T10:49:59.988Z,10.15
2018-01-12T10:52:35.181Z,10.18
2018-01-12T10:55:08.669Z,10.44
2018-01-12T10:57:40.141Z,10.20
2018-01-12T11:00:22.185Z,10.33
2018-01-12T11:02:55.919Z,10.19
2018-01-12T11:05:27.694Z,10.19
2018-01-12T11:07:59.194Z,9.83
2018-01-12T11:10:30.843Z,10.26
2018-01-12T11:13:02.959Z,10.33
2018-01-12T11:15:36.529Z,9.73
2018-01-12T11:18:10.060Z,9.81
2018-01-12T11:20:43.948Z,9.76
2018-01-12T11:23:16.419Z,10.07
2018-01-12T11:25:49.437Z,9.85
2018-01-12T11:28:22.688Z,9.72
2018-01-12T11:30:54.943Z,9.93
2018-01-12T11:33:26.171Z,9.81
2018-01-12T11:35:57.915Z,9.71
2018-01-12T11:38:29.176Z,10.08
2018-01-12T11:41:00.398Z,10.29
2018-01-12T11:43:32.016Z,10.34
2018-01-12T11:46:03.141Z,10.44
2018-01-12T11:48:34.416Z,10.37
2018-01-12T11:51:06.235Z,9.89
2018-01-12T11:53:38.002Z,10.00
2018-01-12T11:56:09.855Z,10.16
2018-01-12T11:58:42.372Z,10.26
2018-01-12T12:01:17.105Z,10.02
2018-01-12T12:03:49.400Z,10.38
2018-01-12T12:06:21.952Z,9.78
2018-01-12T12:08:54.793Z,10.00
2018-01-12T12:11:27.874Z,9.75
2018-01-12T12:14:00.262Z,9.94
2018-01-12T12:16:34.463Z,9.79
2018-01-12T12:19:07.246Z,9.35
2018-01-12T12:21:40.509Z,9.48
2018-01-12T12:24:12.903Z,9.49
2018-01-12T12:26:43.951Z,9.54
2018-01-12T12:29:18.090Z,9.16
2018-01-12T12:31:57.492Z,9.42
2018-01-12T12:34:28.896Z,9.81
2018-01-12T12:37:08.216Z,9.26
2018-01-12T12:39:41.324Z,9.29
2018-01-12T12:42:12.915Z,9.33
2018-01-12T12:44:45.310Z,9.26
2018-01-12T12:47:17.500Z,9.00
2018-01-12T12:49:50.140Z,8.69
2018-01-12T12:52:23.382Z,8.77
2018-01-12T12:54:54.620Z,9.05
2018-01-12T12:57:27.108Z,9.06
2018-01-12T12:59:58.461Z,8.48
2018-01-12T13:02:31.275Z,8.62
2018-01-12T13:05:04.891Z,8.89
2018-01-12T13:07:36.212Z,8.95
2018-01-12T13:10:11.379Z,9.46
2018-01-12T13:12:43.184Z,9.53
2018-01-12T13:15:18.410Z,9.31
2018-01-12T13:17:52.798Z,9.39
2018-01-12T13:20:25.681Z,9.23
2018-01-12T13:22:56.840Z,9.08
2018-01-12T13:25:28.580Z,9.59
2018-01-12T13:28:00.899Z,9.41
2018-01-12T13:30:32.200Z,8.91
2018-01-12T13:33:05.621Z,9.11
2018-01-12T13:35:36.795Z,9.75
2018-01-12T13:38:08.184Z,9.79
2018-01-12T13:40:41.645Z,10.31
2018-01-12T13:43:13.400Z,10.00
2018-01-12T13:45:44.940Z,9.50
2018-01-12T13:48:16.152Z,9.63
2018-01-12T13:50:51.202Z,9.44
2018-01-12T13:53:23.116Z,9.40
2018-01-12T13:55:56.431Z,8.90
2018-01-12T13:58:29.588Z,9.05
2018-01-12T14:01:01.728Z,9.25
2018-01-12T14:03:33.691Z,9.34
2018-01-12T14:06:07.341Z,9.29
2018-01-12T14:08:40.537Z,9.29
2018-01-12T14:11:13.993Z,9.11
2018-01-12T14:13:46.723Z,8.90
2018-01-12T14:16:22.083Z,8.59
2018-01-12T14:18:56.698Z,8.78
2018-01-12T14:21:31.399Z,9.10
2018-01-12T14:24:09.026Z,9.09
2018-01-12T14:26:41.923Z,8.49
2018-01-12T14:29:22.102Z,8.43
2018-01-12T14:31:54.564Z,8.16
2018-01-12T14:34:29.044Z,7.98
2018-01-12T14:37:02.420Z,8.16
2018-01-12T14:39:34.712Z,8.56
2018-01-12T14:42:07.549Z,8.34
2018-01-12T14:44:39.412Z,8.64
2018-01-12T14:47:12.479Z,8.96
2018-01-12T14:49:45.259Z,8.90
2018-01-12T14:52:17.098Z,8.77
2018-01-12T14:54:52.623Z,8.60
2018-01-12T14:57:24.804Z,8.78
2018-01-12T14:59:57.212Z,8.08
2018-01-12T15:05:24.284Z,8.58
2018-01-12T15:07:58.024Z,9.05
2018-01-12T15:10:33.217Z,9.23
2018-01-12T15:13:14.363Z,8.77
2018-01-12T15:15:46.654Z,8.44
2018-01-12T15:18:19.606Z,8.62
2018-01-12T15:20:53.419Z,9.06
2018-01-12T15:23:27.818Z,8.95
2018-01-12T15:26:03.443Z,9.06
2018-01-12T15:28:35.440Z,8.98
2018-01-12T15:31:11.907Z,9.05
2018-01-12T15:33:44.848Z,8.60
2018-01-12T16:52:39.814Z,8.33
2018-01-12T16:55:11.778Z,8.60
2018-01-12T16:57:46.792Z,8.93
2018-01-12T17:00:19.686Z,8.99
2018-01-12T17:02:51.402Z,8.70
2018-01-12T17:05:24.549Z,8.68
2018-01-12T17:07:57.706Z,8.51
2018-01-12T17:10:30.099Z,8.35
2018-01-12T17:13:03.503Z,8.55
2018-01-12T17:15:34.907Z,8.67
2018-01-12T17:18:07.194Z,8.54
2018-01-12T17:20:39.087Z,8.82
2018-01-12T17:23:11.465Z,8.85
2018-01-12T17:25:43.016Z,8.79
2018-01-12T17:28:14.775Z,8.53
2018-01-12T17:30:49.530Z,8.44
2018-01-12T17:33:22.308Z,8.21
2018-01-12T17:35:55.086Z,8.32
2018-01-12T17:38:27.436Z,8.81
2018-01-12T17:40:59.473Z,8.29
2018-01-12T17:43:31.989Z,8.58
2018-01-12T17:46:06.861Z,8.62
2018-01-12T17:48:39.044Z,8.54
2018-01-12T17:51:10.631Z,8.46
2018-01-12T17:53:44.029Z,8.13
2018-01-12T17:56:16.465Z,8.11
2018-01-12T17:58:48.171Z,8.46
2018-01-12T18:01:23.893Z,8.59
2018-01-12T18:03:57.670Z,8.70
2018-01-12T18:06:29.237Z,8.34
2018-01-12T18:09:00.515Z,8.39
2018-01-12T18:11:32.108Z,8.65
2018-01-12T18:14:05.725Z,8.27
2018-01-12T18:16:38.632Z,8.34
2018-01-12T18:19:10.415Z,8.28
2018-01-12T18:21:42.694Z,8.44
2018-01-12T18:24:16.862Z,8.79
2018-01-12T18:26:50.634Z,8.76
2018-01-12T18:29:23.090Z,8.31
2018-01-12T18:31:56.162Z,8.44
2018-01-12T18:34:28.178Z,8.28
2018-01-12T18:37:02.288Z,8.19
2018-01-12T18:39:33.631Z,7.84
2018-01-12T18:42:07.404Z,8.02
2018-01-12T18:44:39.619Z,8.30
2018-01-12T18:47:11.256Z,8.29
2018-01-12T18:49:44.921Z,8.47
2018-01-12T18:52:17.332Z,8.54
2018-01-12T18:54:51.813Z,8.70
2018-01-12T18:57:23.890Z,8.71
2018-01-12T18:59:57.200Z,8.71
2018-01-12T19:02:29.462Z,8.28
2018-01-12T19:05:01.254Z,8.23
2018-01-12T19:10:18.163Z,8.03
2018-01-12T19:12:57.215Z,8.55
2018-01-12T19:15:30.289Z,8.44
2018-01-12T19:18:01.988Z,8.29
2018-01-12T19:20:33.890Z,7.93
2018-01-12T19:23:05.334Z,8.06
2018-01-12T19:25:36.477Z,8.25
2018-01-12T19:28:08.908Z,8.73
2018-01-12T19:30:41.222Z,8.74
2018-01-12T19:33:16.540Z,8.69
2018-01-12T19:35:48.310Z,8.59
2018-01-12T19:38:19.557Z,8.60
2018-01-12T19:40:50.890Z,8.60
2018-01-12T19:43:23.932Z,8.79
2018-01-12T19:45:59.353Z,8.83
2018-01-12T19:48:32.313Z,8.78
2018-01-12T19:51:04.022Z,8.48
2018-01-12T19:53:36.295Z,8.60
2018-01-12T19:56:10.176Z,8.87
2018-01-12T19:58:42.296Z,8.58
2018-01-12T20:03:47.590Z,8.52
2018-01-12T20:06:25.065Z,8.83
2018-01-12T20:15:29.575Z,8.78
2018-01-12T20:19:23.368Z,8.55
2018-01-12T20:22:44.840Z,8.88
2018-01-12T20:25:20.554Z,8.74
2018-01-12T20:27:53.808Z,8.41
2018-01-12T20:30:54.400Z,8.81
2018-01-12T20:40:01.510Z,8.86
2018-01-12T20:42:36.809Z,8.95
2018-01-12T20:45:10.613Z,8.57
2018-01-12T21:12:35.156Z,8.88
2018-01-12T21:15:33.401Z,8.61
2018-01-12T21:21:39.678Z,9.17
2018-01-12T21:24:11.908Z,9.40
2018-01-12T21:26:46.052Z,9.03
2018-01-12T21:29:20.584Z,9.13
2018-01-12T21:31:53.935Z,8.94
2018-01-12T21:34:26.659Z,8.75
2018-01-12T21:37:00.015Z,8.55
2018-01-12T21:39:32.737Z,8.56
2018-01-12T21:42:05.024Z,8.70
2018-01-12T21:44:37.737Z,8.56
2018-01-12T21:47:10.424Z,8.38
2018-01-12T21:49:51.242Z,8.29
2018-01-12T21:52:22.912Z,8.48
2018-01-12T21:54:55.855Z,8.48
2018-01-12T21:57:27.915Z,8.32
2018-01-12T22:00:30.511Z,8.39
2018-01-12T22:03:02.989Z,8.12
2018-01-12T22:05:42.606Z,7.73
2018-01-12T22:08:14.938Z,8.04
2018-01-12T22:10:50.164Z,8.01
2018-01-12T22:13:22.467Z,8.48
2018-01-12T22:15:55.490Z,8.14
2018-01-12T22:18:28.316Z,8.28
2018-01-12T22:21:01.073Z,8.36
2018-01-12T22:23:32.486Z,8.33
2018-01-12T22:26:03.871Z,8.09
2018-01-12T22:28:35.545Z,8.62
2018-01-12T22:31:07.742Z,8.51
2018-01-12T22:33:40.802Z,8.50
2018-01-12T22:36:14.613Z,8.53
2018-01-12T22:38:48.365Z,8.40
2018-01-12T22:41:21.609Z,8.53
2018-01-12T22:43:55.319Z,8.46
2018-01-12T22:46:26.467Z,8.18
2018-01-12T22:49:00.404Z,7.77
2018-01-12T22:51:32.603Z,7.78
2018-01-12T22:54:03.980Z,8.24
2018-01-12T22:56:36.760Z,7.63
2018-01-12T22:59:08.168Z,7.81
2018-01-12T23:01:41.288Z,7.96
2018-01-12T23:04:16.339Z,7.70
2018-01-12T23:06:48.980Z,8.06
2018-01-12T23:09:22.859Z,7.86
2018-01-12T23:11:59.023Z,7.90
2018-01-12T23:14:35.681Z,8.11
2018-01-12T23:17:11.318Z,7.78
2018-01-12T23:19:47.394Z,8.24
2018-01-12T23:22:20.837Z,7.93
2018-01-12T23:24:56.804Z,8.01
2018-01-12T23:27:28.665Z,7.94
2018-01-12T23:30:00.784Z,7.97
2018-01-12T23:32:32.082Z,7.69
2018-01-12T23:35:03.355Z,7.55
2018-01-12T23:37:35.112Z,8.07
2018-01-12T23:40:06.699Z,8.44
2018-01-12T23:42:38.806Z,8.08
2018-01-12T23:45:10.747Z,8.21
2018-01-12T23:47:41.932Z,8.09
2018-01-12T23:50:15.039Z,7.95
2018-01-12T23:52:47.100Z,8.00
2018-01-12T23:55:19.143Z,8.00
2018-01-12T23:57:52.538Z,8.01
